Time;durP1;ratioP1;P1;durP2;ratioP2;P2;SDS_P1;SDS_P2;PMS_P1;PMS_P2;Temp;Humidity;BMP_temperature;BMP_pressure;BME280_temperature;BME280_humidity;BME280_pressure;Samples;Min_cycle;Max_cycle;Signal;HPM_P1;HPM_P2
2023/09/29 00:00:31;;;;;;;6.90;4.55;;;;;;;19.95;45.69;101256.78;5045915;28;20390;-82
2023/09/29 00:03:01;;;;;;;7.88;5.20;;;;;;;19.96;46.04;101261.28;5014751;28;20077;-82
2023/09/29 00:05:30;;;;;;;5.32;4.35;;;;;;;19.95;45.92;101259.56;5030350;28;20528;-82
2023/09/29 00:07:58;;;;;;;8.15;5.35;;;;;;;19.97;45.82;101259.38;5028398;28;20056;-81
2023/09/29 00:10:26;;;;;;;5.57;4.20;;;;;;;19.99;45.77;101260.06;5027700;28;20060;-82
2023/09/29 00:12:54;;;;;;;5.45;4.30;;;;;;;20.00;45.79;101264.56;5028126;28;20053;-82
2023/09/29 00:15:22;;;;;;;8.68;5.00;;;;;;;19.99;46.26;101266.47;5027345;28;20055;-82
2023/09/29 00:17:51;;;;;;;7.93;5.05;;;;;;;20.00;46.19;101267.34;5026778;28;20136;-82
2023/09/29 00:20:23;;;;;;;7.25;4.88;;;;;;;20.02;45.98;101266.13;5026875;28;20077;-82
2023/09/29 00:22:52;;;;;;;7.55;5.25;;;;;;;20.00;45.96;101262.66;5031955;28;20057;-82
2023/09/29 00:25:20;;;;;;;8.13;4.82;;;;;;;20.02;46.20;101262.47;5047021;28;20048;-83
2023/09/29 00:27:49;;;;;;;6.63;4.80;;;;;;;20.01;46.15;101256.06;5029374;28;20833;-82
2023/09/29 00:30:18;;;;;;;7.20;5.20;;;;;;;20.01;46.03;101253.28;5028052;28;20056;-82
2023/09/29 00:32:46;;;;;;;7.03;5.13;;;;;;;20.00;45.95;101253.47;5028824;28;20046;-83
2023/09/29 00:35:23;;;;;;;7.07;4.82;;;;;;;20.00;46.05;101250.69;5028565;28;20048;-82
2023/09/29 00:37:54;;;;;;;6.80;4.68;;;;;;;20.01;45.96;101255.19;5043075;28;20049;-83
2023/09/29 00:40:22;;;;;;;6.85;4.60;;;;;;;19.99;46.04;101252.59;5028944;28;20107;-83
2023/09/29 00:42:50;;;;;;;6.05;4.50;;;;;;;19.97;45.79;101254.69;5046183;28;20314;-82
2023/09/29 00:45:23;;;;;;;6.53;4.45;;;;;;;19.97;46.12;101246.34;5032504;28;20075;-83
2023/09/29 00:47:52;;;;;;;6.55;4.30;;;;;;;19.95;45.85;101251.22;5047328;28;20052;-82
2023/09/29 00:50:21;;;;;;;8.43;4.97;;;;;;;19.96;45.95;101240.97;5035067;28;20589;-83
2023/09/29 00:52:52;;;;;;;6.65;4.65;;;;;;;19.96;45.86;101241.84;5046081;28;20046;-82
2023/09/29 00:55:27;;;;;;;6.07;4.28;;;;;;;19.94;46.04;101232.84;5051071;28;20059;-82
2023/09/29 00:57:59;;;;;;;6.47;4.50;;;;;;;19.93;45.93;101238.59;5070148;28;20095;-82
2023/09/29 01:00:32;;;;;;;5.25;4.03;;;;;;;19.88;46.32;101236.31;5043084;28;20107;-83
2023/09/29 01:03:04;;;;;;;6.15;4.45;;;;;;;19.90;46.04;101239.78;5039309;28;20125;-83
2023/09/29 01:05:37;;;;;;;6.03;4.30;;;;;;;19.88;46.15;101238.22;5033199;28;20053;-83
2023/09/29 01:08:09;;;;;;;6.20;4.75;;;;;;;19.88;46.15;101227.97;5053486;28;20061;-82
2023/09/29 01:10:39;;;;;;;7.00;4.63;;;;;;;19.86;46.24;101229.25;5049206;28;20462;-83
2023/09/29 01:13:09;;;;;;;7.93;4.82;;;;;;;19.85;46.05;101221.97;5031518;28;20156;-82
2023/09/29 01:15:39;;;;;;;6.97;4.75;;;;;;;19.84;46.03;101223.00;5027816;28;20324;-82
2023/09/29 01:18:10;;;;;;;6.25;4.95;;;;;;;19.79;46.01;101215.22;5031759;28;20049;-83
2023/09/29 01:20:40;;;;;;;6.82;4.55;;;;;;;19.81;46.31;101212.25;5048473;28;20057;-83
2023/09/29 01:23:09;;;;;;;6.18;4.63;;;;;;;19.80;46.11;101211.38;5035565;28;20098;-83
2023/09/29 01:25:39;;;;;;;6.53;4.28;;;;;;;19.81;46.23;101203.91;5030361;28;20046;-83
2023/09/29 01:28:10;;;;;;;7.45;4.30;;;;;;;19.81;46.41;101203.91;5050165;28;20050;-82
2023/09/29 01:30:40;;;;;;;6.63;4.03;;;;;;;19.79;46.00;101206.06;5033185;28;20057;-82
2023/09/29 01:33:08;;;;;;;6.13;4.43;;;;;;;19.78;46.15;101199.63;5034095;28;20679;-83
2023/09/29 01:35:36;;;;;;;6.80;4.28;;;;;;;19.79;46.12;101206.06;5033642;28;20053;-82
2023/09/29 01:38:05;;;;;;;7.05;4.45;;;;;;;19.79;46.24;101195.78;5032155;28;20218;-82
2023/09/29 01:40:33;;;;;;;5.82;4.03;;;;;;;19.78;46.07;101196.84;5035306;28;20113;-82
2023/09/29 01:43:03;;;;;;;5.50;3.75;;;;;;;19.81;46.14;101203.91;5030402;28;20069;-82
2023/09/29 01:45:32;;;;;;;5.20;3.60;;;;;;;19.79;45.95;101206.06;5046209;28;20061;-82
2023/09/29 01:48:01;;;;;;;5.47;3.88;;;;;;;19.78;45.91;101199.63;5029979;28;20524;-82
2023/09/29 01:50:32;;;;;;;6.32;3.95;;;;;;;19.79;46.16;101197.72;5031901;28;20064;-81
2023/09/29 01:53:00;;;;;;;5.18;3.75;;;;;;;19.80;46.20;101199.41;5036163;28;20060;-83
2023/09/29 01:55:29;;;;;;;6.15;4.18;;;;;;;19.79;45.91;101193.00;5053862;28;20075;-83
2023/09/29 01:57:58;;;;;;;5.38;3.92;;;;;;;19.80;46.36;101186.38;5033322;28;20056;-83
2023/09/29 02:00:29;;;;;;;5.95;3.80;;;;;;;19.82;46.09;101186.22;5052912;28;20057;-82
2023/09/29 02:03:00;;;;;;;6.28;4.20;;;;;;;19.80;46.20;101171.63;5039914;28;20053;-82
2023/09/29 02:05:28;;;;;;;5.20;3.88;;;;;;;19.78;46.28;101171.84;5035755;28;20101;-82
2023/09/29 02:08:01;;;;;;;5.97;4.28;;;;;;;19.77;46.16;101170.13;5031163;28;20051;-82
2023/09/29 02:10:29;;;;;;;;;;;;;;;19.47;46.61;101171.91;5032159;28;20103;-83
2023/09/29 02:12:58;;;;;;;5.43;3.80;;;;;;;19.72;45.83;101182.81;5033274;28;19974;-83
2023/09/29 02:15:29;;;;;;;5.78;3.88;;;;;;;19.77;45.79;101186.78;5029582;28;20049;-82
2023/09/29 02:17:57;;;;;;;5.47;3.60;;;;;;;19.74;45.94;101180.72;5028555;28;20095;-82
2023/09/29 02:20:29;;;;;;;6.45;3.90;;;;;;;19.75;45.91;101179.69;5036331;28;20045;-82
2023/09/29 02:22:59;;;;;;;5.50;3.87;;;;;;;19.72;45.95;101177.28;5032067;28;20056;-83
2023/09/29 02:25:28;;;;;;;6.57;3.75;;;;;;;19.72;46.05;101171.72;5029897;28;20104;-81
2023/09/29 02:27:57;;;;;;;5.03;3.40;;;;;;;19.72;45.79;101178.13;5031404;28;20424;-81
2023/09/29 02:30:26;;;;;;;5.43;3.70;;;;;;;19.71;45.68;101168.06;5030106;28;20060;-81
2023/09/29 02:32:55;;;;;;;6.57;3.95;;;;;;;19.72;45.81;101169.81;5038737;28;20136;-81
2023/09/29 02:35:24;;;;;;;5.88;4.00;;;;;;;19.69;46.11;101172.09;5048022;28;20056;-81
2023/09/29 02:37:53;;;;;;;6.00;3.97;;;;;;;19.69;45.93;101169.31;5039671;28;20113;-81
2023/09/29 02:40:23;;;;;;;5.63;4.38;;;;;;;19.69;46.29;101170.19;5031545;28;20243;-82
2023/09/29 02:42:51;;;;;;;5.40;3.58;;;;;;;19.69;46.08;101166.56;5034927;28;20411;-82
2023/09/29 02:45:19;;;;;;;5.68;3.78;;;;;;;19.70;45.93;101168.28;5043323;28;20142;-81
2023/09/29 02:47:48;;;;;;;5.78;3.83;;;;;;;19.70;46.30;101171.06;5048837;28;20037;-82
2023/09/29 02:50:18;;;;;;;6.38;4.18;;;;;;;19.71;46.19;101170.00;5051822;28;20119;-81
2023/09/29 02:52:48;;;;;;;7.70;4.00;;;;;;;19.69;46.29;101158.22;5039768;28;20057;-82
2023/09/29 02:55:16;;;;;;;5.68;3.67;;;;;;;19.68;45.89;101159.28;5052070;28;20075;-82
2023/09/29 02:57:45;;;;;;;6.05;3.80;;;;;;;19.68;46.12;101162.91;5056020;28;20080;-83
2023/09/29 03:00:18;;;;;;;5.68;3.90;;;;;;;19.67;46.02;101157.53;5039464;28;20173;-80
2023/09/29 03:02:48;;;;;;;6.07;4.00;;;;;;;19.67;46.21;101157.53;5043072;28;20060;-81
2023/09/29 03:05:17;;;;;;;5.88;3.63;;;;;;;19.68;45.98;101156.50;5040184;28;20076;-83
2023/09/29 03:07:45;;;;;;;5.68;3.42;;;;;;;19.65;46.19;101157.72;5032584;28;20052;-81
2023/09/29 03:10:14;;;;;;;5.78;3.78;;;;;;;19.64;46.01;101145.75;5032148;28;20544;-81
2023/09/29 03:12:43;;;;;;;6.68;3.90;;;;;;;19.65;46.13;101138.28;5033335;28;20813;-81
2023/09/29 03:15:14;;;;;;;5.85;3.65;;;;;;;19.64;46.08;101151.31;5032746;28;20048;-81
2023/09/29 03:17:42;;;;;;;5.22;3.40;;;;;;;19.63;45.94;101143.16;5029568;28;20126;-82
2023/09/29 03:20:11;;;;;;;5.78;3.50;;;;;;;19.63;45.96;101152.34;5034273;28;20056;-81
2023/09/29 03:22:43;;;;;;;5.88;3.70;;;;;;;19.64;46.44;101156.84;5036313;28;20041;-81
2023/09/29 03:25:16;;;;;;;5.88;3.72;;;;;;;19.59;46.41;101148.22;5032648;28;20077;-82
2023/09/29 03:27:45;;;;;;;5.03;3.40;;;;;;;19.60;46.23;101146.31;5038609;28;20124;-83
2023/09/29 03:30:13;;;;;;;5.47;3.33;;;;;;;19.61;46.00;101148.06;5029368;28;20553;-83
2023/09/29 03:32:41;;;;;;;5.47;3.80;;;;;;;19.60;46.40;101141.63;5033465;28;20051;-84
2023/09/29 03:35:10;;;;;;;5.53;3.42;;;;;;;19.61;46.28;101145.28;5033573;28;20037;-84
2023/09/29 03:37:39;;;;;;;6.57;3.75;;;;;;;19.58;46.19;101129.84;5029474;28;20459;-83
2023/09/29 03:40:11;;;;;;;5.80;3.92;;;;;;;19.63;46.40;101130.13;5029559;28;20053;-83
2023/09/29 03:42:41;;;;;;;6.32;3.70;;;;;;;19.59;46.47;101139.91;5031654;28;20115;-82
2023/09/29 03:45:12;;;;;;;5.90;3.70;;;;;;;19.60;46.13;101133.31;5045353;28;20049;-82
2023/09/29 03:47:41;;;;;;;7.07;4.50;;;;;;;19.58;46.45;101134.53;5025749;28;20053;-82
2023/09/29 03:50:11;;;;;;;5.95;3.75;;;;;;;19.59;46.14;101122.38;5030404;28;20461;-83
2023/09/29 03:52:40;;;;;;;7.78;4.18;;;;;;;19.56;46.48;101123.59;5027586;28;20048;-82
2023/09/29 03:55:12;;;;;;;6.18;3.75;;;;;;;19.58;46.57;101120.66;5026563;28;20602;-82
2023/09/29 03:57:41;;;;;;;6.70;4.03;;;;;;;19.51;46.41;101126.09;5030408;28;20061;-82
2023/09/29 04:00:11;;;;;;;6.07;3.90;;;;;;;19.55;46.22;101124.66;5044120;28;20374;-82
2023/09/29 04:02:41;;;;;;;8.00;4.25;;;;;;;19.55;46.27;101132.97;5032633;28;20464;-82
2023/09/29 04:05:11;;;;;;;6.35;3.65;;;;;;;19.53;46.15;101128.69;5029580;28;20053;-82
2023/09/29 04:07:40;;;;;;;7.35;4.40;;;;;;;19.52;46.08;101121.41;5028429;28;20048;-82
2023/09/29 04:10:11;;;;;;;6.68;3.67;;;;;;;19.52;46.44;101116.72;5049117;28;20053;-82
2023/09/29 04:12:40;;;;;;;5.80;3.60;;;;;;;19.48;46.36;101107.03;5043694;28;20060;-81
2023/09/29 04:15:10;;;;;;;7.60;4.05;;;;;;;19.49;46.78;101105.97;5024873;28;20611;-82
2023/09/29 04:17:39;;;;;;;6.55;3.55;;;;;;;19.48;46.52;101106.16;5025335;28;20099;-82
2023/09/29 04:20:09;;;;;;;7.53;3.75;;;;;;;19.47;46.18;101098.88;5025582;28;20084;-82
2023/09/29 04:22:37;;;;;;;5.65;3.45;;;;;;;19.45;46.36;101101.00;5043316;28;20045;-82
2023/09/29 04:25:10;;;;;;;5.63;3.63;;;;;;;19.48;46.38;101097.84;5044269;28;20163;-82
2023/09/29 04:27:40;;;;;;;5.18;3.22;;;;;;;19.44;46.54;101090.94;5030251;28;20428;-82
2023/09/29 04:30:09;;;;;;;4.95;3.42;;;;;;;19.43;46.76;101078.13;5030794;28;20041;-83
2023/09/29 04:32:37;;;;;;;4.88;3.05;;;;;;;19.42;46.52;101073.59;5039122;28;20043;-82
2023/09/29 04:35:06;;;;;;;5.15;3.08;;;;;;;19.41;46.68;101072.75;5048311;28;20071;-82
2023/09/29 04:37:34;;;;;;;5.65;2.90;;;;;;;19.39;46.73;101074.84;5060038;28;20053;-82
2023/09/29 04:40:02;;;;;;;5.22;2.88;;;;;;;19.41;46.84;101085.75;5034573;28;20065;-83
2023/09/29 04:42:33;;;;;;;5.22;3.05;;;;;;;19.40;46.52;101087.66;5046684;28;20053;-84
2023/09/29 04:45:02;;;;;;;3.92;2.75;;;;;;;19.41;47.09;101085.75;5031572;28;20052;-83
2023/09/29 04:47:30;;;;;;;5.55;2.90;;;;;;;19.40;46.54;101084.88;5029323;28;20624;-84
2023/09/29 04:49:58;;;;;;;6.00;3.25;;;;;;;19.40;46.69;101075.69;5029957;28;20111;-83
2023/09/29 04:52:26;;;;;;;5.30;2.85;;;;;;;19.40;46.78;101078.47;5027767;28;20076;-83
2023/09/29 04:54:54;;;;;;;4.80;2.85;;;;;;;19.40;46.83;101087.66;5037589;28;20045;-83
2023/09/29 04:57:23;;;;;;;4.97;3.10;;;;;;;19.41;46.72;101089.41;5031166;28;20431;-83
2023/09/29 04:59:52;;;;;;;5.13;2.80;;;;;;;19.42;47.12;101084.72;5039416;28;20064;-83
2023/09/29 05:02:20;;;;;;;3.90;2.70;;;;;;;19.38;46.73;101084.19;5039657;28;21285;-83
2023/09/29 05:04:48;;;;;;;4.60;3.00;;;;;;;19.38;46.66;101077.81;5033522;28;20061;-83
2023/09/29 05:07:16;;;;;;;5.28;2.70;;;;;;;19.39;46.96;101071.19;5024757;28;20417;-84
2023/09/29 05:09:45;;;;;;;5.18;2.92;;;;;;;19.36;46.84;101075.22;5029794;28;20135;-83
2023/09/29 05:12:13;;;;;;;4.57;3.10;;;;;;;19.37;46.99;101067.78;5045973;28;20294;-83
2023/09/29 05:14:42;;;;;;;5.13;3.22;;;;;;;19.36;46.79;101069.69;5033311;28;20045;-82
2023/09/29 05:17:11;;;;;;;4.05;3.13;;;;;;;19.36;46.77;101057.72;5026789;28;20260;-83
2023/09/29 05:19:40;;;;;;;4.85;3.10;;;;;;;19.36;47.06;101054.94;5030762;28;20049;-82
2023/09/29 05:22:09;;;;;;;5.55;3.55;;;;;;;19.33;46.94;101046.97;5026136;28;20057;-84
2023/09/29 05:24:39;;;;;;;6.38;3.28;;;;;;;19.32;47.03;101051.66;5040802;28;20065;-83
2023/09/29 05:27:07;;;;;;;5.00;3.30;;;;;;;19.31;46.99;101047.16;5035432;28;20096;-83
2023/09/29 05:29:39;;;;;;;5.25;3.25;;;;;;;19.29;47.40;101045.63;5036453;28;20048;-83
2023/09/29 05:32:08;;;;;;;4.60;3.15;;;;;;;19.30;46.88;101056.53;5019554;28;20674;-83
2023/09/29 05:34:38;;;;;;;4.43;3.28;;;;;;;19.33;47.10;101058.06;5019166;28;20049;-83
2023/09/29 05:37:06;;;;;;;4.80;3.03;;;;;;;19.28;47.06;101055.88;5019145;28;20168;-84
2023/09/29 05:39:34;;;;;;;4.38;2.95;;;;;;;19.29;47.13;101052.06;5035233;28;20050;-84
2023/09/29 05:42:03;;;;;;;5.32;3.20;;;;;;;19.30;47.17;101047.34;5039844;28;20527;-83
2023/09/29 05:44:32;;;;;;;4.65;3.00;;;;;;;19.28;47.27;101055.88;5064878;28;20053;-83
2023/09/29 05:46:59;;;;;;;4.93;2.88;;;;;;;19.28;46.99;101058.66;5049603;28;20049;-83
2023/09/29 05:49:27;;;;;;;4.63;2.70;;;;;;;19.29;47.39;101056.75;5050995;28;20045;-83
2023/09/29 05:51:57;;;;;;;4.55;2.70;;;;;;;19.30;47.07;101056.53;5049273;28;20159;-83
2023/09/29 05:54:25;;;;;;;4.10;2.90;;;;;;;19.31;47.08;101074.03;5030761;28;20052;-83
2023/09/29 05:56:53;;;;;;;5.22;3.03;;;;;;;19.30;47.31;101064.84;5029608;28;20057;-82
2023/09/29 05:59:21;;;;;;;4.65;2.90;;;;;;;19.31;47.41;101072.13;5032534;28;20050;-83
2023/09/29 06:01:49;;;;;;;5.38;3.05;;;;;;;19.30;47.23;101062.06;5041693;28;20084;-83
2023/09/29 06:04:22;;;;;;;6.35;3.13;;;;;;;19.32;47.32;101070.22;5043372;28;20144;-83
2023/09/29 06:06:50;;;;;;;4.97;3.35;;;;;;;19.34;47.23;101068.13;5028605;28;20509;-83
2023/09/29 06:09:19;;;;;;;4.85;3.08;;;;;;;19.35;47.14;101054.06;5029904;28;20049;-83
2023/09/29 06:11:49;;;;;;;6.20;3.58;;;;;;;19.36;47.26;101055.81;5050534;28;20057;-84
2023/09/29 06:14:18;;;;;;;4.28;2.95;;;;;;;19.36;47.32;101057.72;5031555;28;20119;-83
2023/09/29 06:16:46;;;;;;;5.03;2.80;;;;;;;19.37;47.26;101060.31;5029170;28;20328;-84
2023/09/29 06:19:14;;;;;;;5.70;3.00;;;;;;;19.37;47.27;101059.44;5038563;28;20061;-83
2023/09/29 06:21:44;;;;;;;5.15;3.33;;;;;;;19.36;47.33;101066.91;5061978;28;20044;-83
2023/09/29 06:24:12;;;;;;;4.75;3.08;;;;;;;19.36;47.27;101063.25;5045165;28;20073;-82
2023/09/29 06:26:41;;;;;;;4.97;2.60;;;;;;;19.40;47.46;101056.28;5055826;28;20132;-83
2023/09/29 06:29:09;;;;;;;3.72;2.50;;;;;;;19.37;47.09;101053.88;5042452;28;20068;-82
2023/09/29 06:31:37;;;;;;;6.18;3.80;;;;;;;19.39;47.47;101062.88;5028340;28;20048;-83
2023/09/29 06:34:05;;;;;;;6.63;3.10;;;;;;;19.37;47.23;101054.75;5031847;28;20073;-83
2023/09/29 06:36:33;;;;;;;4.03;2.88;;;;;;;19.40;47.07;101054.34;5033028;28;20057;-83
2023/09/29 06:39:01;;;;;;;4.70;2.78;;;;;;;19.40;47.51;101048.81;5035338;28;20123;-83
2023/09/29 06:41:29;;;;;;;4.75;2.97;;;;;;;19.38;47.49;101045.34;5031040;28;20373;-83
2023/09/29 06:43:58;;;;;;;4.50;2.72;;;;;;;19.43;47.60;101048.44;5032713;28;20045;-83
2023/09/29 06:46:26;;;;;;;4.68;2.65;;;;;;;19.42;47.30;101055.03;5027453;28;20050;-82
2023/09/29 06:48:54;;;;;;;4.47;2.70;;;;;;;19.42;47.49;101046.72;5032117;28;20111;-83
2023/09/29 06:51:22;;;;;;;4.95;2.83;;;;;;;19.45;47.25;101048.25;5030366;28;20057;-83
2023/09/29 06:53:50;;;;;;;4.72;2.92;;;;;;;19.46;47.83;101050.81;5035510;28;20049;-83
2023/09/29 06:56:18;;;;;;;4.20;2.80;;;;;;;19.48;47.44;101057.06;5032097;28;20057;-83
2023/09/29 06:58:47;;;;;;;4.60;2.90;;;;;;;19.50;47.45;101049.41;5036927;28;20911;-82
2023/09/29 07:01:17;;;;;;;5.25;2.88;;;;;;;19.55;47.67;101052.47;5033408;28;20061;-83
2023/09/29 07:03:47;;;;;;;4.38;2.70;;;;;;;19.55;47.56;101054.38;5052287;28;20060;-83
2023/09/29 07:06:16;;;;;;;4.95;3.00;;;;;;;19.56;47.51;101056.97;5036119;28;20138;-83
2023/09/29 07:08:45;;;;;;;3.90;2.70;;;;;;;19.58;47.71;101046.56;5030014;28;20390;-83
2023/09/29 07:11:13;;;;;;;4.78;2.65;;;;;;;19.60;47.51;101050.00;5030809;28;20125;-83
2023/09/29 07:13:41;;;;;;;5.18;2.80;;;;;;;19.61;47.69;101046.19;5033443;28;20133;-82
2023/09/29 07:16:09;;;;;;;4.45;2.75;;;;;;;19.68;47.65;101048.19;5032507;28;20052;-83
2023/09/29 07:18:38;;;;;;;5.85;2.92;;;;;;;19.72;47.74;101043.97;5031249;28;20045;-81
2023/09/29 07:21:06;;;;;;;4.13;2.72;;;;;;;19.75;47.54;101046.38;5031849;28;20045;-82
2023/09/29 07:23:34;;;;;;;4.80;2.55;;;;;;;19.76;47.51;101051.75;5031047;28;20057;-81
2023/09/29 07:26:03;;;;;;;5.32;2.83;;;;;;;19.81;47.69;101053.94;5031473;28;20051;-82
2023/09/29 07:28:31;;;;;;;5.57;3.10;;;;;;;19.82;47.41;101045.44;5047735;28;20061;-82
2023/09/29 07:30:59;;;;;;;5.07;2.92;;;;;;;19.86;47.66;101051.47;5034726;28;20054;-82
2023/09/29 07:33:27;;;;;;;4.28;2.67;;;;;;;19.88;47.46;101053.00;5052291;28;20130;-82
2023/09/29 07:35:56;;;;;;;4.78;2.67;;;;;;;19.93;47.51;101058.88;5031898;28;20045;-81
2023/09/29 07:38:25;;;;;;;4.10;2.65;;;;;;;19.94;47.71;101049.50;5033944;28;20084;-82
2023/09/29 07:40:53;;;;;;;5.45;3.20;;;;;;;19.96;47.34;101052.06;5035260;28;20259;-80
2023/09/29 07:43:21;;;;;;;5.90;3.08;;;;;;;19.99;47.55;101051.69;5033867;28;20402;-81
2023/09/29 07:45:50;;;;;;;9.18;3.30;;;;;;;20.00;47.82;101059.84;5031517;28;20084;-82
2023/09/29 07:48:18;;;;;;;5.22;3.00;;;;;;;20.02;47.56;101045.78;5029885;28;20637;-83
2023/09/29 07:50:50;;;;;;;5.38;2.70;;;;;;;20.06;47.38;101047.09;5031661;28;20483;-83
2023/09/29 07:53:20;;;;;;;5.07;2.90;;;;;;;20.07;47.39;101043.25;5053409;28;20052;-82
2023/09/29 07:55:48;;;;;;;4.45;2.47;;;;;;;20.08;47.64;101045.00;5034591;28;20041;-82
2023/09/29 07:58:17;;;;;;;4.68;3.08;;;;;;;20.10;47.41;101045.66;5036600;28;20048;-83
2023/09/29 08:00:45;;;;;;;5.28;2.60;;;;;;;20.13;47.40;101050.81;5036626;28;20048;-83
2023/09/29 08:03:12;;;;;;;4.70;2.42;;;;;;;20.16;47.52;101046.81;5042838;28;20126;-82
2023/09/29 08:05:40;;;;;;;3.50;2.50;;;;;;;20.18;47.43;101051.13;5046958;28;20064;-83
2023/09/29 08:08:09;;;;;;;4.07;2.40;;;;;;;20.21;47.63;101056.28;5049588;28;20045;-82
2023/09/29 08:10:38;;;;;;;4.32;2.42;;;;;;;20.26;47.47;101062.13;5049421;28;20041;-83
2023/09/29 08:13:06;;;;;;;3.88;2.40;;;;;;;20.27;47.39;101051.88;5056168;28;20049;-82
2023/09/29 08:15:34;;;;;;;3.55;2.47;;;;;;;20.32;47.44;101052.16;5039387;28;20088;-82
2023/09/29 08:18:02;;;;;;;4.25;2.53;;;;;;;20.34;47.14;101056.47;5037858;28;20501;-84
2023/09/29 08:20:30;;;;;;;4.20;2.50;;;;;;;20.38;47.34;101056.94;5036603;28;20264;-83
2023/09/29 08:22:58;;;;;;;4.40;2.38;;;;;;;20.40;47.26;101050.13;5034036;28;20455;-83
2023/09/29 08:25:26;;;;;;;4.90;2.80;;;;;;;20.44;47.06;101053.41;5032497;28;20409;-83
2023/09/29 08:27:56;;;;;;;4.32;2.30;;;;;;;20.49;47.32;101056.44;5035302;28;20136;-83
2023/09/29 08:30:24;;;;;;;3.78;2.40;;;;;;;20.49;47.15;101055.59;5049725;28;20060;-83
2023/09/29 08:32:52;;;;;;;4.57;2.42;;;;;;;20.50;47.18;101048.97;5050153;28;20042;-82
2023/09/29 08:35:33;;;;;;;3.63;2.25;;;;;;;20.53;47.10;101068.06;5049685;28;20049;-83
2023/09/29 08:38:01;;;;;;;5.07;2.25;;;;;;;20.56;47.06;101059.28;5035888;28;20038;-84
2023/09/29 08:40:36;;;;;;;4.00;2.30;;;;;;;20.57;47.12;101061.88;5035271;28;20555;-82
2023/09/29 08:43:10;;;;;;;4.35;2.58;;;;;;;20.62;47.02;101059.41;5038415;28;20055;-84
2023/09/29 08:45:43;;;;;;;5.20;2.35;;;;;;;20.66;46.72;101062.66;5035405;28;20096;-83
2023/09/29 08:48:13;;;;;;;6.18;2.60;;;;;;;20.67;47.18;101068.03;5037720;28;20041;-82
2023/09/29 08:50:42;;;;;;;3.75;2.47;;;;;;;20.69;47.07;101076.19;5039187;28;20076;-84
2023/09/29 08:53:11;;;;;;;5.18;2.70;;;;;;;20.75;47.04;101079.06;5038581;28;20061;-84
2023/09/29 08:55:40;;;;;;;5.50;2.70;;;;;;;20.77;46.95;101084.44;5053928;28;20556;-84
2023/09/29 08:58:10;;;;;;;5.03;2.60;;;;;;;20.83;47.10;101083.63;5038932;28;20051;-84
2023/09/29 09:00:38;;;;;;;5.55;2.65;;;;;;;20.85;46.95;101084.31;5039615;28;20424;-84
2023/09/29 09:03:10;;;;;;;;;;;;;;;20.58;47.52;101080.31;5037973;28;20045;-83
2023/09/29 09:05:38;;;;;;;4.05;2.53;;;;;;;20.89;47.20;101093.97;5037976;28;20238;-83
2023/09/29 09:08:07;;;;;;;3.38;2.17;;;;;;;20.99;47.38;101080.59;5053807;28;20098;-83
2023/09/29 09:10:36;;;;;;;4.78;2.63;;;;;;;21.09;47.23;101081.16;5052282;28;20821;-83
2023/09/29 09:13:05;;;;;;;4.00;2.78;;;;;;;21.17;47.65;101091.28;5038090;28;20040;-83
2023/09/29 09:15:34;;;;;;;4.32;2.65;;;;;;;21.28;47.50;101090.78;5036375;28;20147;-80
2023/09/29 09:18:03;;;;;;;3.00;2.13;;;;;;;21.36;47.36;101090.63;5032458;28;20472;-83
2023/09/29 09:20:31;;;;;;;4.53;2.60;;;;;;;21.46;47.25;101088.38;5052697;28;20050;-83
2023/09/29 09:23:00;;;;;;;5.38;2.25;;;;;;;21.57;46.92;101088.91;5035952;28;20168;-83
2023/09/29 09:25:34;;;;;;;4.60;2.58;;;;;;;21.69;46.26;101099.28;5034358;28;20083;-83
2023/09/29 09:28:04;;;;;;;5.00;2.70;;;;;;;21.78;46.22;101102.78;5035937;28;20594;-83
2023/09/29 09:30:35;;;;;;;6.50;2.50;;;;;;;21.89;46.03;101085.50;5034681;28;20049;-82
2023/09/29 09:33:05;;;;;;;4.85;2.60;;;;;;;21.99;45.51;101099.13;5048341;28;20056;-83
2023/09/29 09:35:37;;;;;;;4.22;2.35;;;;;;;22.06;45.49;101102.81;5032734;28;20045;-82
2023/09/29 09:38:06;;;;;;;3.83;2.30;;;;;;;22.10;45.20;101110.56;5032135;28;20524;-82
2023/09/29 09:40:35;;;;;;;4.03;2.10;;;;;;;22.19;44.72;101122.41;5049683;28;20741;-81
2023/09/29 09:43:04;;;;;;;5.90;2.58;;;;;;;22.25;44.56;101116.03;5035304;28;20050;-83
2023/09/29 09:45:37;;;;;;;3.40;2.22;;;;;;;22.30;43.64;101135.78;5052309;28;20079;-83
2023/09/29 09:48:07;;;;;;;4.07;1.90;;;;;;;22.32;43.80;101136.44;5041688;28;20322;-84
2023/09/29 09:50:42;;;;;;;4.15;2.13;;;;;;;22.34;43.08;101137.09;5051663;28;20067;-83
2023/09/29 09:53:13;;;;;;;4.10;2.05;;;;;;;22.33;42.91;101140.09;5048491;28;20053;-83
2023/09/29 09:55:50;;;;;;;4.07;2.00;;;;;;;22.33;42.25;101145.69;5064067;28;20057;-84
2023/09/29 09:58:21;;;;;;;5.25;1.77;;;;;;;22.31;42.60;101140.28;5046103;28;20052;-83
2023/09/29 10:00:54;;;;;;;5.75;1.88;;;;;;;22.29;42.43;101142.41;5039093;28;20897;-83
2023/09/29 10:03:26;;;;;;;5.03;2.08;;;;;;;22.28;42.24;101155.50;5041896;28;20053;-82
2023/09/29 10:05:56;;;;;;;3.45;1.77;;;;;;;22.27;42.24;101155.69;5045400;28;20112;-83
2023/09/29 10:08:30;;;;;;;3.63;1.88;;;;;;;22.24;42.13;101145.84;5039294;28;20072;-83
2023/09/29 10:11:11;;;;;;;3.92;1.90;;;;;;;22.24;41.55;101148.63;5038845;28;20456;-82
2023/09/29 10:13:42;;;;;;;3.58;1.98;;;;;;;22.18;41.92;101157.78;5042178;28;20050;-84
2023/09/29 10:16:22;;;;;;;3.95;1.83;;;;;;;22.18;41.78;101162.50;5061927;28;20053;-83
2023/09/29 10:18:58;;;;;;;4.18;2.13;;;;;;;22.18;41.81;101159.69;5042170;28;20436;-82
2023/09/29 10:21:30;;;;;;;4.18;2.05;;;;;;;22.15;42.18;101165.72;5038987;28;20061;-83
2023/09/29 10:24:00;;;;;;;4.43;2.00;;;;;;;22.12;42.52;101154.94;5057213;28;20072;-83
2023/09/29 10:26:29;;;;;;;4.80;2.22;;;;;;;22.16;42.37;101159.06;5039458;28;20061;-83
2023/09/29 10:29:02;;;;;;;4.13;2.33;;;;;;;22.21;42.18;101168.53;5039106;28;20045;-82
2023/09/29 10:31:31;;;;;;;4.45;2.28;;;;;;;22.22;42.14;101156.31;5039039;28;20140;-83
2023/09/29 10:34:00;;;;;;;5.57;2.20;;;;;;;22.26;42.61;101165.16;5055127;28;20049;-83
2023/09/29 10:36:30;;;;;;;4.53;2.20;;;;;;;22.32;42.57;101167.13;5038780;28;20116;-83
2023/09/29 10:39:03;;;;;;;5.20;2.40;;;;;;;22.38;42.37;101165.44;5047185;28;20048;-83
2023/09/29 10:41:32;;;;;;;4.68;2.05;;;;;;;22.42;42.31;101170.41;5042860;28;20045;-83
2023/09/29 10:44:05;;;;;;;4.75;2.17;;;;;;;22.49;42.52;101174.09;5062433;28;20512;-84
2023/09/29 10:46:36;;;;;;;4.40;2.35;;;;;;;22.60;42.08;101176.31;5043040;28;20045;-83
2023/09/29 10:49:05;;;;;;;5.40;2.60;;;;;;;22.64;42.37;101174.84;5042536;28;20140;-83
2023/09/29 10:51:33;;;;;;;5.60;2.47;;;;;;;22.76;41.74;101168.66;5043192;28;20069;-83
2023/09/29 10:54:06;;;;;;;8.35;2.72;;;;;;;22.84;41.57;101177.72;5038882;28;20424;-84
2023/09/29 10:56:36;;;;;;;9.43;3.20;;;;;;;22.93;41.63;101170.03;5036163;28;20053;-83
2023/09/29 10:59:07;;;;;;;5.47;2.80;;;;;;;23.01;41.12;101179.09;5036284;28;20049;-84
2023/09/29 11:01:36;;;;;;;5.35;2.72;;;;;;;23.11;41.37;101191.81;5051793;28;20079;-83
2023/09/29 11:04:09;;;;;;;5.50;2.78;;;;;;;23.19;40.87;101200.03;5034937;28;20050;-82
2023/09/29 11:06:42;;;;;;;5.93;2.95;;;;;;;23.28;40.19;101193.19;5035163;28;20057;-84
2023/09/29 11:09:16;;;;;;;5.90;2.42;;;;;;;23.35;39.66;101199.66;5036923;28;20045;-83
2023/09/29 11:11:45;;;;;;;6.60;2.95;;;;;;;23.39;40.49;101207.41;5036973;28;20053;-84
2023/09/29 11:14:13;;;;;;;7.47;3.25;;;;;;;23.46;39.92;101200.97;5037795;28;20054;-83
2023/09/29 11:16:42;;;;;;;6.50;3.17;;;;;;;23.52;39.79;101202.91;5046618;28;20057;-83
2023/09/29 11:19:11;;;;;;;7.28;3.50;;;;;;;23.58;39.53;101204.88;5041974;28;20135;-83
2023/09/29 11:21:41;;;;;;;6.07;3.20;;;;;;;23.62;39.31;101211.75;5034529;28;20063;-84
2023/09/29 11:24:11;;;;;;;7.25;3.28;;;;;;;23.64;39.15;101213.28;5035873;28;20049;-84
2023/09/29 11:26:41;;;;;;;5.72;3.03;;;;;;;23.65;39.11;101214.13;5036295;28;20196;-83
2023/09/29 11:29:20;;;;;;;6.75;3.33;;;;;;;23.67;38.29;101201.66;5037508;28;20305;-84
2023/09/29 11:31:51;;;;;;;7.38;3.55;;;;;;;23.68;38.63;101199.72;5040961;28;20053;-83
2023/09/29 11:34:19;;;;;;;7.47;3.47;;;;;;;23.67;38.87;101196.06;5037872;28;20060;-84
2023/09/29 11:36:48;;;;;;;7.78;3.53;;;;;;;23.70;38.77;101200.38;5040044;28;21195;-83